sensor_id;sensor_type;location;lat;lon;timestamp;pressure;altitude;pressure_sealevel;temperature;humidity
62592;BME280;48659;41.622;2.276;2024-02-14T00:00:21;100549.22;;;9.63;53.30
62592;BME280;48659;41.622;2.276;2024-02-14T00:02:49;100552.82;;;10.06;53.02
62592;BME280;48659;41.622;2.276;2024-02-14T00:05:17;100556.01;;;10.03;53.24
62592;BME280;48659;41.622;2.276;2024-02-14T00:07:45;100556.97;;;10.00;53.69
62592;BME280;48659;41.622;2.276;2024-02-14T00:10:12;100561.49;;;9.59;54.63
62592;BME280;48659;41.622;2.276;2024-02-14T00:12:40;100557.41;;;9.31;55.84
62592;BME280;48659;41.622;2.276;2024-02-14T00:15:08;100560.36;;;9.03;57.39
62592;BME280;48659;41.622;2.276;2024-02-14T00:17:35;100566.51;;;9.52;55.38
62592;BME280;48659;41.622;2.276;2024-02-14T00:20:02;100572.36;;;9.86;54.88
62592;BME280;48659;41.622;2.276;2024-02-14T00:22:29;100577.39;;;9.65;54.68
62592;BME280;48659;41.622;2.276;2024-02-14T00:24:56;100579.44;;;9.77;54.40
62592;BME280;48659;41.622;2.276;2024-02-14T00:27:24;100575.54;;;9.45;54.91
62592;BME280;48659;41.622;2.276;2024-02-14T00:29:52;100572.42;;;9.38;55.03
62592;BME280;48659;41.622;2.276;2024-02-14T00:32:23;100566.67;;;8.88;54.72
62592;BME280;48659;41.622;2.276;2024-02-14T00:34:51;100556.21;;;9.33;54.75
62592;BME280;48659;41.622;2.276;2024-02-14T00:37:19;100558.85;;;9.50;54.32
62592;BME280;48659;41.622;2.276;2024-02-14T00:39:47;100558.25;;;9.09;55.10
62592;BME280;48659;41.622;2.276;2024-02-14T00:42:14;100564.09;;;9.17;56.29
62592;BME280;48659;41.622;2.276;2024-02-14T00:44:42;100556.92;;;9.27;55.53
62592;BME280;48659;41.622;2.276;2024-02-14T00:47:09;100552.80;;;8.78;56.93
62592;BME280;48659;41.622;2.276;2024-02-14T00:49:36;100553.84;;;9.06;56.06
62592;BME280;48659;41.622;2.276;2024-02-14T00:52:04;100555.31;;;9.45;54.49
62592;BME280;48659;41.622;2.276;2024-02-14T00:54:31;100553.83;;;9.13;54.15
62592;BME280;48659;41.622;2.276;2024-02-14T00:56:58;100559.15;;;7.27;59.69
62592;BME280;48659;41.622;2.276;2024-02-14T00:59:26;100558.81;;;8.72;57.28
62592;BME280;48659;41.622;2.276;2024-02-14T01:01:53;100553.38;;;9.17;55.64
62592;BME280;48659;41.622;2.276;2024-02-14T01:04:21;100550.26;;;9.47;54.67
62592;BME280;48659;41.622;2.276;2024-02-14T01:06:48;100552.90;;;9.35;55.63
62592;BME280;48659;41.622;2.276;2024-02-14T01:09:24;100552.98;;;9.54;56.28
62592;BME280;48659;41.622;2.276;2024-02-14T01:11:52;100552.11;;;9.19;56.77
62592;BME280;48659;41.622;2.276;2024-02-14T01:14:19;100550.97;;;8.83;57.33
62592;BME280;48659;41.622;2.276;2024-02-14T01:16:46;100553.00;;;9.22;56.40
62592;BME280;48659;41.622;2.276;2024-02-14T01:19:14;100558.39;;;9.14;56.69
62592;BME280;48659;41.622;2.276;2024-02-14T01:21:42;100553.85;;;8.90;55.75
62592;BME280;48659;41.622;2.276;2024-02-14T01:24:10;100553.71;;;9.83;54.57
62592;BME280;48659;41.622;2.276;2024-02-14T01:26:37;100549.89;;;8.72;57.12
62592;BME280;48659;41.622;2.276;2024-02-14T01:29:05;100552.36;;;9.26;55.07
62592;BME280;48659;41.622;2.276;2024-02-14T01:31:33;100555.07;;;9.14;55.14
62592;BME280;48659;41.622;2.276;2024-02-14T01:34:01;100564.99;;;7.07;59.38
62592;BME280;48659;41.622;2.276;2024-02-14T01:36:28;100567.16;;;6.92;60.37
62592;BME280;48659;41.622;2.276;2024-02-14T01:38:55;100569.73;;;6.98;61.82
62592;BME280;48659;41.622;2.276;2024-02-14T01:41:23;100567.08;;;7.79;59.73
62592;BME280;48659;41.622;2.276;2024-02-14T01:43:51;100569.41;;;7.03;62.49
62592;BME280;48659;41.622;2.276;2024-02-14T01:46:19;100568.13;;;8.11;58.95
62592;BME280;48659;41.622;2.276;2024-02-14T01:48:46;100573.04;;;8.34;59.32
62592;BME280;48659;41.622;2.276;2024-02-14T01:51:13;100571.64;;;8.42;57.36
62592;BME280;48659;41.622;2.276;2024-02-14T01:53:42;100580.28;;;7.56;59.09
62592;BME280;48659;41.622;2.276;2024-02-14T01:56:09;100571.61;;;9.20;56.44
62592;BME280;48659;41.622;2.276;2024-02-14T01:58:37;100564.24;;;8.45;57.09
62592;BME280;48659;41.622;2.276;2024-02-14T02:01:05;100562.60;;;9.04;55.34
62592;BME280;48659;41.622;2.276;2024-02-14T02:03:32;100563.89;;;9.00;54.83
62592;BME280;48659;41.622;2.276;2024-02-14T02:06:00;100564.90;;;9.39;54.53
62592;BME280;48659;41.622;2.276;2024-02-14T02:08:27;100561.68;;;8.83;54.87
62592;BME280;48659;41.622;2.276;2024-02-14T02:10:55;100555.54;;;9.52;54.42
62592;BME280;48659;41.622;2.276;2024-02-14T02:13:23;100553.30;;;9.21;54.04
62592;BME280;48659;41.622;2.276;2024-02-14T02:15:51;100547.31;;;9.29;53.85
62592;BME280;48659;41.622;2.276;2024-02-14T02:18:18;100549.41;;;9.44;53.71
62592;BME280;48659;41.622;2.276;2024-02-14T02:20:45;100553.53;;;8.95;54.46
62592;BME280;48659;41.622;2.276;2024-02-14T02:23:13;100552.55;;;9.22;54.89
62592;BME280;48659;41.622;2.276;2024-02-14T02:25:41;100552.04;;;8.84;55.31
62592;BME280;48659;41.622;2.276;2024-02-14T02:28:09;100550.79;;;9.04;56.14
62592;BME280;48659;41.622;2.276;2024-02-14T02:30:37;100552.51;;;8.93;56.05
62592;BME280;48659;41.622;2.276;2024-02-14T02:33:05;100551.59;;;9.48;54.45
62592;BME280;48659;41.622;2.276;2024-02-14T02:35:33;100546.33;;;9.17;54.29
62592;BME280;48659;41.622;2.276;2024-02-14T02:38:01;100548.42;;;10.09;53.75
62592;BME280;48659;41.622;2.276;2024-02-14T02:40:28;100547.41;;;9.00;55.40
62592;BME280;48659;41.622;2.276;2024-02-14T02:42:56;100554.17;;;9.23;55.27
62592;BME280;48659;41.622;2.276;2024-02-14T02:45:33;100553.20;;;9.98;53.68
62592;BME280;48659;41.622;2.276;2024-02-14T02:48:00;100554.24;;;10.00;54.19
62592;BME280;48659;41.622;2.276;2024-02-14T02:50:27;100550.42;;;8.99;53.97
62592;BME280;48659;41.622;2.276;2024-02-14T02:52:55;100550.94;;;9.58;54.37
62592;BME280;48659;41.622;2.276;2024-02-14T02:55:22;100542.89;;;9.10;55.71
62592;BME280;48659;41.622;2.276;2024-02-14T02:57:50;100544.97;;;9.51;54.74
62592;BME280;48659;41.622;2.276;2024-02-14T03:00:18;100541.14;;;8.79;55.63
62592;BME280;48659;41.622;2.276;2024-02-14T03:02:45;100539.63;;;8.88;54.91
62592;BME280;48659;41.622;2.276;2024-02-14T03:05:13;100538.10;;;8.84;55.98
62592;BME280;48659;41.622;2.276;2024-02-14T03:07:40;100535.24;;;9.47;55.40
62592;BME280;48659;41.622;2.276;2024-02-14T03:10:08;100542.48;;;9.13;56.66
62592;BME280;48659;41.622;2.276;2024-02-14T03:12:36;100543.14;;;8.81;56.52
62592;BME280;48659;41.622;2.276;2024-02-14T03:15:03;100541.62;;;8.91;56.57
62592;BME280;48659;41.622;2.276;2024-02-14T03:17:31;100539.12;;;9.01;56.54
62592;BME280;48659;41.622;2.276;2024-02-14T03:19:58;100538.29;;;8.90;57.18
62592;BME280;48659;41.622;2.276;2024-02-14T03:22:26;100538.49;;;9.13;56.35
62592;BME280;48659;41.622;2.276;2024-02-14T03:24:53;100544.06;;;8.27;57.36
62592;BME280;48659;41.622;2.276;2024-02-14T03:27:21;100543.09;;;8.76;55.62
62592;BME280;48659;41.622;2.276;2024-02-14T03:29:49;100547.22;;;9.00;55.39
62592;BME280;48659;41.622;2.276;2024-02-14T03:32:24;100544.57;;;8.65;53.99
62592;BME280;48659;41.622;2.276;2024-02-14T03:34:51;100543.51;;;7.27;56.83
62592;BME280;48659;41.622;2.276;2024-02-14T03:37:19;100542.49;;;6.95;57.30
62592;BME280;48659;41.622;2.276;2024-02-14T03:39:46;100552.40;;;5.72;61.86
62592;BME280;48659;41.622;2.276;2024-02-14T03:42:13;100551.78;;;6.42;60.59
62592;BME280;48659;41.622;2.276;2024-02-14T03:44:40;100552.99;;;7.62;56.56
62592;BME280;48659;41.622;2.276;2024-02-14T03:47:08;100553.97;;;7.27;57.82
62592;BME280;48659;41.622;2.276;2024-02-14T03:49:36;100551.94;;;9.01;53.86
62592;BME280;48659;41.622;2.276;2024-02-14T03:52:04;100557.76;;;9.57;52.36
62592;BME280;48659;41.622;2.276;2024-02-14T03:54:31;100562.86;;;10.14;51.29
62592;BME280;48659;41.622;2.276;2024-02-14T03:56:59;100562.41;;;10.37;51.64
62592;BME280;48659;41.622;2.276;2024-02-14T03:59:26;100559.44;;;9.92;51.61
62592;BME280;48659;41.622;2.276;2024-02-14T04:01:53;100556.53;;;9.68;51.99
62592;BME280;48659;41.622;2.276;2024-02-14T04:04:22;100552.13;;;9.91;50.40
62592;BME280;48659;41.622;2.276;2024-02-14T04:06:49;100550.62;;;8.54;53.90
62592;BME280;48659;41.622;2.276;2024-02-14T04:09:16;100553.38;;;9.56;53.71
62592;BME280;48659;41.622;2.276;2024-02-14T04:11:44;100560.06;;;9.34;52.92
62592;BME280;48659;41.622;2.276;2024-02-14T04:14:11;100566.09;;;10.01;52.24
62592;BME280;48659;41.622;2.276;2024-02-14T04:16:38;100572.56;;;10.01;51.97
62592;BME280;48659;41.622;2.276;2024-02-14T04:19:06;100575.44;;;9.49;53.08
62592;BME280;48659;41.622;2.276;2024-02-14T04:21:33;100581.24;;;9.35;54.27
62592;BME280;48659;41.622;2.276;2024-02-14T04:24:01;100589.68;;;9.51;54.04
62592;BME280;48659;41.622;2.276;2024-02-14T04:26:29;100590.22;;;9.41;53.87
62592;BME280;48659;41.622;2.276;2024-02-14T04:28:56;100591.01;;;9.76;52.91
62592;BME280;48659;41.622;2.276;2024-02-14T04:31:24;100587.01;;;9.53;53.82
62592;BME280;48659;41.622;2.276;2024-02-14T04:33:52;100591.28;;;9.56;54.33
62592;BME280;48659;41.622;2.276;2024-02-14T04:36:19;100587.65;;;9.32;55.08
62592;BME280;48659;41.622;2.276;2024-02-14T04:38:47;100591.16;;;9.23;54.88
62592;BME280;48659;41.622;2.276;2024-02-14T04:41:14;100590.55;;;9.00;55.26
62592;BME280;48659;41.622;2.276;2024-02-14T04:43:41;100595.55;;;7.47;58.62
62592;BME280;48659;41.622;2.276;2024-02-14T04:46:09;100594.63;;;8.55;56.06
62592;BME280;48659;41.622;2.276;2024-02-14T04:48:37;100591.86;;;7.52;59.01
62592;BME280;48659;41.622;2.276;2024-02-14T04:51:05;100593.28;;;7.37;59.75
62592;BME280;48659;41.622;2.276;2024-02-14T04:53:32;100591.96;;;8.35;57.10
62592;BME280;48659;41.622;2.276;2024-02-14T04:56:00;100590.84;;;8.37;58.02
62592;BME280;48659;41.622;2.276;2024-02-14T04:58:27;100591.17;;;8.18;56.30
62592;BME280;48659;41.622;2.276;2024-02-14T05:00:54;100592.24;;;8.71;56.82
62592;BME280;48659;41.622;2.276;2024-02-14T05:03:25;100602.30;;;5.69;62.48
62592;BME280;48659;41.622;2.276;2024-02-14T05:05:52;100601.65;;;8.04;59.65
62592;BME280;48659;41.622;2.276;2024-02-14T05:08:25;100598.82;;;6.98;60.16
62592;BME280;48659;41.622;2.276;2024-02-14T05:10:53;100600.28;;;8.20;58.90
62592;BME280;48659;41.622;2.276;2024-02-14T05:13:20;100598.15;;;7.09;60.28
62592;BME280;48659;41.622;2.276;2024-02-14T05:15:47;100595.17;;;7.65;61.01
62592;BME280;48659;41.622;2.276;2024-02-14T05:18:15;100593.05;;;7.21;61.78
62592;BME280;48659;41.622;2.276;2024-02-14T05:20:43;100590.03;;;9.20;56.92
62592;BME280;48659;41.622;2.276;2024-02-14T05:23:10;100589.32;;;8.92;57.62
62592;BME280;48659;41.622;2.276;2024-02-14T05:25:38;100583.78;;;8.69;57.27
62592;BME280;48659;41.622;2.276;2024-02-14T05:28:05;100581.71;;;8.89;56.63
62592;BME280;48659;41.622;2.276;2024-02-14T05:30:33;100589.94;;;8.68;56.80
62592;BME280;48659;41.622;2.276;2024-02-14T05:33:00;100587.31;;;8.70;56.61
62592;BME280;48659;41.622;2.276;2024-02-14T05:35:27;100592.78;;;8.06;57.59
62592;BME280;48659;41.622;2.276;2024-02-14T05:37:55;100594.00;;;8.77;56.53
62592;BME280;48659;41.622;2.276;2024-02-14T05:40:24;100592.72;;;8.71;56.08
62592;BME280;48659;41.622;2.276;2024-02-14T05:42:52;100591.16;;;9.55;55.11
62592;BME280;48659;41.622;2.276;2024-02-14T05:45:24;100588.56;;;9.57;54.37
62592;BME280;48659;41.622;2.276;2024-02-14T05:47:51;100586.37;;;9.21;55.63
62592;BME280;48659;41.622;2.276;2024-02-14T05:50:29;100577.12;;;9.15;55.40
62592;BME280;48659;41.622;2.276;2024-02-14T05:52:57;100573.32;;;9.70;56.11
62592;BME280;48659;41.622;2.276;2024-02-14T05:55:24;100572.34;;;8.81;56.09
62592;BME280;48659;41.622;2.276;2024-02-14T05:57:51;100574.14;;;8.52;57.23
62592;BME280;48659;41.622;2.276;2024-02-14T06:00:19;100571.11;;;7.93;58.05
62592;BME280;48659;41.622;2.276;2024-02-14T06:02:47;100575.24;;;8.66;57.13
62592;BME280;48659;41.622;2.276;2024-02-14T06:05:15;100579.73;;;8.42;57.68
62592;BME280;48659;41.622;2.276;2024-02-14T06:07:42;100579.43;;;9.15;56.17
62592;BME280;48659;41.622;2.276;2024-02-14T06:10:11;100582.71;;;8.56;57.44
62592;BME280;48659;41.622;2.276;2024-02-14T06:12:38;100586.98;;;8.81;56.68
62592;BME280;48659;41.622;2.276;2024-02-14T06:15:06;100590.26;;;8.57;58.00
62592;BME280;48659;41.622;2.276;2024-02-14T06:17:33;100592.37;;;9.24;55.67
62592;BME280;48659;41.622;2.276;2024-02-14T06:20:00;100593.88;;;9.05;56.55
62592;BME280;48659;41.622;2.276;2024-02-14T06:22:28;100602.04;;;9.30;55.82
62592;BME280;48659;41.622;2.276;2024-02-14T06:24:55;100604.71;;;9.29;55.48
62592;BME280;48659;41.622;2.276;2024-02-14T06:27:26;100608.90;;;8.82;56.78
62592;BME280;48659;41.622;2.276;2024-02-14T06:29:53;100606.68;;;8.33;57.54
62592;BME280;48659;41.622;2.276;2024-02-14T06:32:20;100610.77;;;7.43;59.78
62592;BME280;48659;41.622;2.276;2024-02-14T06:34:48;100618.47;;;8.33;57.58
62592;BME280;48659;41.622;2.276;2024-02-14T06:37:15;100620.09;;;8.11;58.63
62592;BME280;48659;41.622;2.276;2024-02-14T06:39:42;100624.80;;;7.86;58.96
62592;BME280;48659;41.622;2.276;2024-02-14T06:42:10;100631.73;;;8.18;58.02
62592;BME280;48659;41.622;2.276;2024-02-14T06:44:37;100635.03;;;7.95;58.39
62592;BME280;48659;41.622;2.276;2024-02-14T06:47:04;100642.26;;;8.07;59.07
62592;BME280;48659;41.622;2.276;2024-02-14T06:49:33;100640.60;;;8.20;58.04
62592;BME280;48659;41.622;2.276;2024-02-14T06:52:00;100642.64;;;8.37;57.72
62592;BME280;48659;41.622;2.276;2024-02-14T06:54:27;100638.35;;;8.08;57.91
62592;BME280;48659;41.622;2.276;2024-02-14T06:56:55;100633.90;;;8.58;57.37
62592;BME280;48659;41.622;2.276;2024-02-14T06:59:25;100635.14;;;7.61;57.17
62592;BME280;48659;41.622;2.276;2024-02-14T07:01:51;100635.14;;;8.65;56.81
62592;BME280;48659;41.622;2.276;2024-02-14T07:04:25;100639.42;;;8.67;56.31
62592;BME280;48659;41.622;2.276;2024-02-14T07:06:53;100648.17;;;7.95;57.33
62592;BME280;48659;41.622;2.276;2024-02-14T07:09:21;100653.77;;;7.93;57.21
62592;BME280;48659;41.622;2.276;2024-02-14T07:11:48;100656.95;;;8.06;58.52
62592;BME280;48659;41.622;2.276;2024-02-14T07:14:16;100656.82;;;8.64;56.83
62592;BME280;48659;41.622;2.276;2024-02-14T07:16:44;100663.52;;;8.50;57.21
62592;BME280;48659;41.622;2.276;2024-02-14T07:19:12;100660.89;;;9.18;55.82
62592;BME280;48659;41.622;2.276;2024-02-14T07:21:39;100662.86;;;9.02;55.47
62592;BME280;48659;41.622;2.276;2024-02-14T07:24:07;100662.40;;;8.28;57.18
62592;BME280;48659;41.622;2.276;2024-02-14T07:26:34;100661.54;;;8.59;57.16
62592;BME280;48659;41.622;2.276;2024-02-14T07:29:02;100666.62;;;8.46;58.12
62592;BME280;48659;41.622;2.276;2024-02-14T07:31:29;100667.26;;;8.51;57.32
62592;BME280;48659;41.622;2.276;2024-02-14T07:33:57;100667.33;;;9.94;55.62
62592;BME280;48659;41.622;2.276;2024-02-14T07:36:24;100667.32;;;9.85;54.99
62592;BME280;48659;41.622;2.276;2024-02-14T07:38:52;100669.23;;;10.28;54.25
62592;BME280;48659;41.622;2.276;2024-02-14T07:41:19;100671.96;;;10.16;53.98
62592;BME280;48659;41.622;2.276;2024-02-14T07:43:47;100669.24;;;9.94;54.47
62592;BME280;48659;41.622;2.276;2024-02-14T07:46:18;100670.63;;;10.28;54.58
62592;BME280;48659;41.622;2.276;2024-02-14T07:48:46;100675.97;;;10.51;54.03
62592;BME280;48659;41.622;2.276;2024-02-14T07:51:13;100680.24;;;10.90;53.56
62592;BME280;48659;41.622;2.276;2024-02-14T07:53:40;100675.79;;;11.24;52.88
62592;BME280;48659;41.622;2.276;2024-02-14T07:56:07;100678.68;;;11.19;52.69
62592;BME280;48659;41.622;2.276;2024-02-14T07:58:35;100684.24;;;10.99;52.44
62592;BME280;48659;41.622;2.276;2024-02-14T08:01:03;100685.60;;;11.43;52.49
62592;BME280;48659;41.622;2.276;2024-02-14T08:03:31;100684.39;;;11.53;52.60
62592;BME280;48659;41.622;2.276;2024-02-14T08:05:59;100685.08;;;10.98;53.22
62592;BME280;48659;41.622;2.276;2024-02-14T08:08:26;100689.11;;;11.22;52.68
62592;BME280;48659;41.622;2.276;2024-02-14T08:10:53;100690.16;;;11.34;52.64
62592;BME280;48659;41.622;2.276;2024-02-14T08:13:20;100687.62;;;10.91;52.98
62592;BME280;48659;41.622;2.276;2024-02-14T08:15:48;100682.04;;;11.39;53.01
62592;BME280;48659;41.622;2.276;2024-02-14T08:18:15;100682.92;;;11.31;53.31
62592;BME280;48659;41.622;2.276;2024-02-14T08:20:42;100678.79;;;11.09;52.91
62592;BME280;48659;41.622;2.276;2024-02-14T08:23:10;100674.25;;;11.49;52.55
62592;BME280;48659;41.622;2.276;2024-02-14T08:25:37;100670.25;;;12.32;50.94
62592;BME280;48659;41.622;2.276;2024-02-14T08:28:05;100671.31;;;12.34;50.64
62592;BME280;48659;41.622;2.276;2024-02-14T08:30:32;100671.69;;;12.61;50.18
62592;BME280;48659;41.622;2.276;2024-02-14T08:32:59;100674.95;;;12.96;49.62
62592;BME280;48659;41.622;2.276;2024-02-14T08:35:27;100673.69;;;11.86;49.59
62592;BME280;48659;41.622;2.276;2024-02-14T08:37:53;100677.63;;;12.50;49.98
62592;BME280;48659;41.622;2.276;2024-02-14T08:40:26;100676.31;;;12.00;49.81
62592;BME280;48659;41.622;2.276;2024-02-14T08:42:53;100677.41;;;12.20;49.40
62592;BME280;48659;41.622;2.276;2024-02-14T08:45:21;100682.05;;;12.42;49.83
62592;BME280;48659;41.622;2.276;2024-02-14T08:47:48;100682.55;;;13.16;48.74
62592;BME280;48659;41.622;2.276;2024-02-14T08:50:15;100679.98;;;12.68;49.40
62592;BME280;48659;41.622;2.276;2024-02-14T08:52:42;100678.89;;;12.69;49.61
62592;BME280;48659;41.622;2.276;2024-02-14T08:55:09;100680.07;;;13.07;48.85
62592;BME280;48659;41.622;2.276;2024-02-14T08:57:37;100680.68;;;12.18;49.75
62592;BME280;48659;41.622;2.276;2024-02-14T09:00:05;100680.79;;;12.95;48.97
62592;BME280;48659;41.622;2.276;2024-02-14T09:02:33;100678.34;;;12.63;49.08
62592;BME280;48659;41.622;2.276;2024-02-14T09:05:00;100677.64;;;12.74;49.78
62592;BME280;48659;41.622;2.276;2024-02-14T09:07:28;100681.01;;;12.83;48.35
62592;BME280;48659;41.622;2.276;2024-02-14T09:09:55;100683.37;;;13.36;48.51
62592;BME280;48659;41.622;2.276;2024-02-14T09:12:22;100685.68;;;12.66;49.53
62592;BME280;48659;41.622;2.276;2024-02-14T09:14:50;100686.68;;;13.27;48.63
62592;BME280;48659;41.622;2.276;2024-02-14T09:17:17;100689.85;;;13.46;48.15
62592;BME280;48659;41.622;2.276;2024-02-14T09:19:45;100692.58;;;13.15;49.03
62592;BME280;48659;41.622;2.276;2024-02-14T09:22:12;100694.32;;;13.66;48.02
62592;BME280;48659;41.622;2.276;2024-02-14T09:24:39;100696.54;;;13.80;46.75
62592;BME280;48659;41.622;2.276;2024-02-14T09:27:06;100693.90;;;14.13;45.97
62592;BME280;48659;41.622;2.276;2024-02-14T09:29:34;100700.15;;;13.90;45.43
62592;BME280;48659;41.622;2.276;2024-02-14T09:32:01;100698.75;;;13.98;45.33
62592;BME280;48659;41.622;2.276;2024-02-14T09:34:29;100702.01;;;13.63;45.82
62592;BME280;48659;41.622;2.276;2024-02-14T09:36:56;100700.96;;;14.19;45.28
62592;BME280;48659;41.622;2.276;2024-02-14T09:39:23;100700.31;;;13.86;45.34
62592;BME280;48659;41.622;2.276;2024-02-14T09:41:52;100699.92;;;14.14;44.25
62592;BME280;48659;41.622;2.276;2024-02-14T09:44:27;100702.09;;;13.72;43.68
62592;BME280;48659;41.622;2.276;2024-02-14T09:46:56;100700.75;;;14.41;44.24
62592;BME280;48659;41.622;2.276;2024-02-14T09:49:24;100698.20;;;14.05;44.92
62592;BME280;48659;41.622;2.276;2024-02-14T09:51:52;100699.11;;;14.50;44.67
62592;BME280;48659;41.622;2.276;2024-02-14T09:54:25;100701.20;;;14.14;43.73
62592;BME280;48659;41.622;2.276;2024-02-14T09:56:53;100701.56;;;15.09;42.93
62592;BME280;48659;41.622;2.276;2024-02-14T09:59:21;100697.66;;;15.26;42.38
62592;BME280;48659;41.622;2.276;2024-02-14T10:01:49;100700.30;;;15.14;42.75
62592;BME280;48659;41.622;2.276;2024-02-14T10:04:18;100697.30;;;14.70;43.37
62592;BME280;48659;41.622;2.276;2024-02-14T10:06:45;100696.03;;;15.23;43.31
62592;BME280;48659;41.622;2.276;2024-02-14T10:09:12;100693.18;;;15.37;42.75
62592;BME280;48659;41.622;2.276;2024-02-14T10:11:39;100689.50;;;15.64;42.56
62592;BME280;48659;41.622;2.276;2024-02-14T10:14:07;100689.16;;;15.45;43.08
62592;BME280;48659;41.622;2.276;2024-02-14T10:16:35;100688.39;;;15.96;42.55
62592;BME280;48659;41.622;2.276;2024-02-14T10:19:02;100690.59;;;15.37;47.12
62592;BME280;48659;41.622;2.276;2024-02-14T10:21:30;100688.09;;;15.46;44.84
62592;BME280;48659;41.622;2.276;2024-02-14T10:23:59;100683.12;;;16.24;41.58
62592;BME280;48659;41.622;2.276;2024-02-14T10:26:27;100688.77;;;15.52;43.44
62592;BME280;48659;41.622;2.276;2024-02-14T10:28:56;100683.63;;;16.03;42.12
62592;BME280;48659;41.622;2.276;2024-02-14T10:31:25;100684.38;;;16.23;41.72
62592;BME280;48659;41.622;2.276;2024-02-14T10:33:55;100680.32;;;16.24;40.20
62592;BME280;48659;41.622;2.276;2024-02-14T10:36:25;100676.04;;;15.82;40.55
62592;BME280;48659;41.622;2.276;2024-02-14T10:38:54;100678.63;;;15.62;40.97
62592;BME280;48659;41.622;2.276;2024-02-14T10:41:23;100681.40;;;15.32;42.55
62592;BME280;48659;41.622;2.276;2024-02-14T10:43:50;100680.36;;;16.55;39.48
62592;BME280;48659;41.622;2.276;2024-02-14T10:46:20;100679.07;;;16.79;39.06
62592;BME280;48659;41.622;2.276;2024-02-14T10:48:50;100677.65;;;16.84;40.13
62592;BME280;48659;41.622;2.276;2024-02-14T10:51:21;100674.23;;;17.17;36.75
62592;BME280;48659;41.622;2.276;2024-02-14T10:53:52;100676.24;;;17.81;38.71
62592;BME280;48659;41.622;2.276;2024-02-14T10:56:20;100672.55;;;17.77;37.31
62592;BME280;48659;41.622;2.276;2024-02-14T10:58:48;100668.75;;;17.90;35.75
62592;BME280;48659;41.622;2.276;2024-02-14T11:01:39;100670.66;;;17.78;35.22
62592;BME280;48659;41.622;2.276;2024-02-14T11:04:08;100662.10;;;17.38;35.46
62592;BME280;48659;41.622;2.276;2024-02-14T11:06:44;100656.80;;;17.79;36.00
62592;BME280;48659;41.622;2.276;2024-02-14T11:09:12;100655.49;;;18.12;35.34
62592;BME280;48659;41.622;2.276;2024-02-14T11:11:40;100652.09;;;18.02;35.36
62592;BME280;48659;41.622;2.276;2024-02-14T11:14:07;100648.81;;;18.03;35.31
62592;BME280;48659;41.622;2.276;2024-02-14T11:16:37;100648.74;;;16.14;37.36
62592;BME280;48659;41.622;2.276;2024-02-14T11:19:08;100646.18;;;16.27;37.21
62592;BME280;48659;41.622;2.276;2024-02-14T11:21:36;100642.38;;;16.47;36.93
62592;BME280;48659;41.622;2.276;2024-02-14T11:24:05;100637.86;;;17.53;36.04
62592;BME280;48659;41.622;2.276;2024-02-14T11:26:39;100633.19;;;15.83;38.31
62592;BME280;48659;41.622;2.276;2024-02-14T11:29:06;100626.58;;;16.64;36.80
62592;BME280;48659;41.622;2.276;2024-02-14T11:31:33;100623.25;;;17.05;36.37
62592;BME280;48659;41.622;2.276;2024-02-14T11:34:04;100620.00;;;17.73;34.65
62592;BME280;48659;41.622;2.276;2024-02-14T11:36:32;100615.08;;;18.76;33.87
62592;BME280;48659;41.622;2.276;2024-02-14T11:39:03;100612.86;;;16.35;36.66
62592;BME280;48659;41.622;2.276;2024-02-14T11:41:32;100608.09;;;18.18;33.92
62592;BME280;48659;41.622;2.276;2024-02-14T11:44:01;100601.73;;;18.94;33.08
62592;BME280;48659;41.622;2.276;2024-02-14T11:46:30;100597.53;;;18.20;33.47
62592;BME280;48659;41.622;2.276;2024-02-14T11:48:58;100598.23;;;18.57;33.68
62592;BME280;48659;41.622;2.276;2024-02-14T11:51:26;100595.22;;;18.95;32.49
62592;BME280;48659;41.622;2.276;2024-02-14T11:53:54;100593.00;;;17.98;34.03
62592;BME280;48659;41.622;2.276;2024-02-14T11:56:26;100590.80;;;18.01;33.30
62592;BME280;48659;41.622;2.276;2024-02-14T11:58:56;100584.11;;;16.96;34.59
62592;BME280;48659;41.622;2.276;2024-02-14T12:01:23;100581.23;;;18.11;33.73
62592;BME280;48659;41.622;2.276;2024-02-14T12:03:51;100571.73;;;19.27;31.69
62592;BME280;48659;41.622;2.276;2024-02-14T12:06:19;100573.27;;;18.54;31.30
62592;BME280;48659;41.622;2.276;2024-02-14T12:08:46;100567.70;;;19.71;30.38
62592;BME280;48659;41.622;2.276;2024-02-14T12:11:14;100563.39;;;19.64;30.37
62592;BME280;48659;41.622;2.276;2024-02-14T12:13:41;100557.26;;;19.91;29.82
62592;BME280;48659;41.622;2.276;2024-02-14T12:16:10;100551.62;;;19.96;29.53
62592;BME280;48659;41.622;2.276;2024-02-14T12:18:38;100541.28;;;19.92;29.70
62592;BME280;48659;41.622;2.276;2024-02-14T12:21:05;100541.02;;;20.45;29.07
62592;BME280;48659;41.622;2.276;2024-02-14T12:23:33;100537.31;;;17.31;32.04
62592;BME280;48659;41.622;2.276;2024-02-14T12:26:02;100534.41;;;18.69;31.11
62592;BME280;48659;41.622;2.276;2024-02-14T12:28:30;100529.10;;;19.94;29.51
62592;BME280;48659;41.622;2.276;2024-02-14T12:30:58;100525.92;;;20.22;28.40
62592;BME280;48659;41.622;2.276;2024-02-14T12:33:26;100523.32;;;18.35;31.04
62592;BME280;48659;41.622;2.276;2024-02-14T12:35:57;100524.68;;;17.67;31.72
62592;BME280;48659;41.622;2.276;2024-02-14T12:38:26;100517.56;;;18.85;29.23
62592;BME280;48659;41.622;2.276;2024-02-14T12:40:53;100518.70;;;17.53;30.85
62592;BME280;48659;41.622;2.276;2024-02-14T12:43:21;100512.79;;;17.84;29.64
62592;BME280;48659;41.622;2.276;2024-02-14T12:45:48;100504.52;;;19.94;27.10
62592;BME280;48659;41.622;2.276;2024-02-14T12:48:23;100507.18;;;20.31;26.15
62592;BME280;48659;41.622;2.276;2024-02-14T12:50:51;100499.19;;;20.98;25.84
62592;BME280;48659;41.622;2.276;2024-02-14T12:53:18;100490.69;;;21.05;24.74
62592;BME280;48659;41.622;2.276;2024-02-14T12:55:46;100488.17;;;21.40;23.96
62592;BME280;48659;41.622;2.276;2024-02-14T12:58:15;100486.48;;;20.61;24.08